Terminal Aerodrome Forecast
Issued by NWS

Home | Current Version | Previous Version | Text Only | Print | Product List | Glossary On
Versions: 1 2 3 4 5 6 7 8 9 10 11 12 13 14 15
000
FTUS45 KABQ 251100
TAFSAF
TAF
KSAF 251140Z 2512/2612 35007KT P6SM SCT120 BKN180
     FM251800 22012G20KT P6SM SCT110 SCT180
     FM252000 21016G26KT P6SM SCT090 BKN120
     FM260200 24008KT P6SM BKN060
     FM260600 VRB06KT P6SM VCSH SCT040 OVC060=

USA.gov is the U.S. government's official web portal to all federal, state and local government web resources and services.